Time;durP1;ratioP1;P1;durP2;ratioP2;P2;SDS_P1;SDS_P2;PMS_P1;PMS_P2;Temp;Humidity;BMP_temperature;BMP_pressure;BME280_temperature;BME280_humidity;BME280_pressure;Samples;Min_cycle;Max_cycle;Signal;HPM_P1;HPM_P2
2023/11/26 00:00:47;;;;;;;13.20;9.68;;;18.40;35.70;;;;;;5072818;28;20563;-60
2023/11/26 00:03:14;;;;;;;13.38;9.38;;;18.40;35.60;;;;;;5073252;28;20194;-60
2023/11/26 00:05:41;;;;;;;13.52;9.18;;;18.40;35.70;;;;;;5072964;28;20217;-60
2023/11/26 00:08:08;;;;;;;13.02;9.55;;;18.40;35.70;;;;;;5072862;28;20191;-59
2023/11/26 00:10:35;;;;;;;16.02;9.40;;;18.40;36.40;;;;;;5072646;28;20722;-60
2023/11/26 00:13:04;;;;;;;13.80;9.57;;;18.40;35.70;;;;;;5072904;28;20226;-60
2023/11/26 00:15:31;;;;;;;13.82;9.50;;;18.40;35.70;;;;;;5072844;28;20225;-61
2023/11/26 00:17:57;;;;;;;14.20;9.52;;;18.40;35.70;;;;;;5072728;28;20282;-60
2023/11/26 00:20:25;;;;;;;14.18;9.25;;;18.40;35.70;;;;;;5072555;28;20297;-60
2023/11/26 00:22:52;;;;;;;14.05;10.00;;;18.40;36.40;;;;;;5072228;28;20775;-59
2023/11/26 00:25:19;;;;;;;12.75;9.55;;;18.40;35.70;;;;;;5072603;28;20297;-59
2023/11/26 00:27:46;;;;;;;12.60;9.48;;;18.30;35.70;;;;;;5072780;28;20191;-60
2023/11/26 00:30:15;;;;;;;14.25;9.70;;;18.30;36.30;;;;;;5072602;28;20215;-60
2023/11/26 00:32:42;;;;;;;13.93;9.48;;;18.30;35.60;;;;;;5072596;28;20224;-60
2023/11/26 00:35:09;;;;;;;15.52;10.05;;;18.30;35.70;;;;;;5072481;28;20221;-60
2023/11/26 00:37:36;;;;;;;12.40;9.20;;;18.30;35.70;;;;;;5072213;28;20584;-60
2023/11/26 00:40:05;;;;;;;16.60;10.00;;;18.30;36.40;;;;;;5072766;28;20218;-60
2023/11/26 00:42:32;;;;;;;15.27;9.90;;;18.30;35.70;;;;;;5072575;28;20195;-60
2023/11/26 00:44:59;;;;;;;14.00;10.15;;;18.30;35.70;;;;;;5072373;28;20214;-60
2023/11/26 00:47:27;;;;;;;13.75;9.80;;;18.30;36.40;;;;;;5072393;28;20182;-60
2023/11/26 00:49:58;;;;;;;13.98;9.50;;;18.20;35.60;;;;;;5072622;28;20215;-59
2023/11/26 00:52:25;;;;;;;14.63;10.07;;;18.20;35.60;;;;;;5071748;28;20624;-59
2023/11/26 00:54:52;;;;;;;13.55;10.50;;;18.20;35.60;;;;;;5072213;28;20732;-60
2023/11/26 00:57:18;;;;;;;13.02;9.43;;;18.20;36.30;;;;;;5072424;28;20205;-60
2023/11/26 00:59:45;;;;;;;13.00;9.80;;;18.20;35.90;;;;;;5071968;28;20241;-61
2023/11/26 01:02:12;;;;;;;15.75;10.25;;;18.20;36.30;;;;;;5072322;28;20183;-60
2023/11/26 01:04:41;;;;;;;16.05;10.32;;;18.20;35.70;;;;;;5072472;28;20244;-60
2023/11/26 01:07:07;;;;;;;13.45;9.95;;;18.20;35.60;;;;;;5071614;28;20286;-59
2023/11/26 01:09:34;;;;;;;16.38;10.63;;;18.20;35.70;;;;;;5071881;28;20226;-59
2023/11/26 01:12:01;;;;;;;15.63;10.48;;;18.20;36.40;;;;;;5072147;28;20639;-60
2023/11/26 01:14:28;;;;;;;12.98;9.70;;;18.20;35.70;;;;;;5071912;28;20313;-60
2023/11/26 01:16:55;;;;;;;13.43;10.00;;;18.20;36.40;;;;;;5072022;28;20197;-60
2023/11/26 01:19:22;;;;;;;16.35;10.40;;;18.20;35.70;;;;;;5072057;28;20219;-60
2023/11/26 01:21:50;;;;;;;14.63;10.00;;;18.20;36.40;;;;;;5071741;28;20187;-60
2023/11/26 01:24:17;;;;;;;13.45;10.25;;;18.20;35.70;;;;;;5071796;28;20302;-61
2023/11/26 01:26:43;;;;;;;17.83;10.38;;;18.20;35.70;;;;;;5072115;28;20278;-58
2023/11/26 01:29:10;;;;;;;15.80;10.35;;;18.20;35.70;;;;;;5071724;28;20301;-61
2023/11/26 01:31:37;;;;;;;12.73;9.38;;;18.20;35.70;;;;;;5073912;28;20190;-59
2023/11/26 01:34:04;;;;;;;15.15;9.68;;;18.10;35.60;;;;;;5076002;28;20236;-60
2023/11/26 01:36:31;;;;;;;14.68;9.90;;;18.10;35.60;;;;;;5075527;28;20186;-59
2023/11/26 01:38:59;;;;;;;13.05;9.68;;;18.10;35.60;;;;;;5075968;28;20222;-61
2023/11/26 01:41:26;;;;;;;13.38;9.68;;;18.10;35.60;;;;;;5075880;28;20222;-58
2023/11/26 01:43:53;;;;;;;15.48;10.10;;;18.10;35.70;;;;;;5075518;28;20548;-60
2023/11/26 01:46:20;;;;;;;16.42;10.52;;;18.10;35.70;;;;;;5075810;28;20241;-60
2023/11/26 01:48:47;;;;;;;14.10;9.98;;;18.10;35.70;;;;;;5075625;28;20194;-60
2023/11/26 01:51:15;;;;;;;17.58;10.43;;;18.10;35.70;;;;;;5075154;28;20211;-60
2023/11/26 01:53:47;;;;;;;14.43;10.65;;;18.10;35.70;;;;;;5075755;28;20219;-60
2023/11/26 01:56:16;;;;;;;15.85;10.57;;;18.10;35.70;;;;;;5075298;28;20678;-59
2023/11/26 01:58:43;;;;;;;14.68;10.07;;;18.10;36.40;;;;;;5075192;28;20190;-60
2023/11/26 02:01:11;;;;;;;14.80;10.45;;;18.00;35.60;;;;;;5075700;28;20278;-59
2023/11/26 02:03:38;;;;;;;13.80;9.68;;;18.00;35.70;;;;;;5075460;28;20568;-59
2023/11/26 02:06:05;;;;;;;13.45;9.18;;;18.10;35.70;;;;;;5075003;28;20187;-60
2023/11/26 02:08:33;;;;;;;13.30;9.55;;;18.00;35.70;;;;;;5075215;28;20187;-59
2023/11/26 02:11:00;;;;;;;13.35;9.20;;;18.00;36.30;;;;;;5075178;28;20218;-59
2023/11/26 02:13:29;;;;;;;15.32;9.40;;;18.00;36.40;;;;;;5074790;28;20783;-60
2023/11/26 02:15:55;;;;;;;13.05;9.45;;;18.00;35.70;;;;;;5074962;28;20207;-61
2023/11/26 02:18:22;;;;;;;12.77;9.48;;;18.00;35.70;;;;;;5075299;28;20193;-60
2023/11/26 02:20:49;;;;;;;13.10;8.65;;;18.00;36.40;;;;;;5074920;28;20304;-59
2023/11/26 02:23:16;;;;;;;13.18;9.60;;;18.00;36.40;;;;;;5075116;28;20279;-60
2023/11/26 02:25:44;;;;;;;13.52;9.20;;;18.00;35.70;;;;;;5075248;28;20221;-60
2023/11/26 02:28:11;;;;;;;15.23;8.95;;;18.00;35.70;;;;;;5074757;28;20187;-59
2023/11/26 02:30:39;;;;;;;14.50;9.02;;;18.00;36.40;;;;;;5075455;28;20218;-60
2023/11/26 02:33:06;;;;;;;11.65;8.45;;;17.90;35.60;;;;;;5074898;28;20218;-60
2023/11/26 02:35:33;;;;;;;13.60;9.23;;;18.00;35.70;;;;;;5074497;28;20214;-60
2023/11/26 02:38:00;;;;;;;13.68;9.27;;;17.90;35.70;;;;;;5073649;28;20191;-60
2023/11/26 02:40:27;;;;;;;11.13;8.75;;;17.90;36.40;;;;;;5068738;28;20254;-57
2023/11/26 02:42:56;;;;;;;11.50;8.30;;;17.90;35.70;;;;;;5053751;28;20187;-60
2023/11/26 02:45:23;;;;;;;12.25;8.30;;;17.90;35.70;;;;;;5054884;28;20219;-60
2023/11/26 02:47:50;;;;;;;11.93;8.07;;;17.90;35.70;;;;;;5054477;28;20192;-60
2023/11/26 02:50:17;;;;;;;12.15;8.50;;;17.90;35.70;;;;;;5054440;28;20310;-59
2023/11/26 02:52:44;;;;;;;13.70;8.10;;;17.90;35.70;;;;;;5054613;28;20194;-60
2023/11/26 02:55:11;;;;;;;13.77;8.68;;;17.90;35.70;;;;;;5054610;28;20353;-60
2023/11/26 02:57:38;;;;;;;13.15;8.63;;;17.90;35.80;;;;;;5053919;28;20564;-59
2023/11/26 03:00:15;;;;;;;10.75;8.05;;;17.90;35.80;;;;;;5054301;28;20308;-60
2023/11/26 03:02:42;;;;;;;11.52;8.05;;;17.90;35.90;;;;;;5054184;28;20219;-60
2023/11/26 03:05:17;;;;;;;10.27;7.55;;;17.90;35.90;;;;;;5053702;28;20300;-57
2023/11/26 03:07:46;;;;;;;12.32;8.18;;;17.90;36.50;;;;;;5054351;28;20538;-60
2023/11/26 03:13:11;;;;;;;11.07;8.20;;;17.90;35.90;;;;;;5073597;28;20182;-59
2023/11/26 03:15:41;;;;;;;10.18;7.47;;;17.80;35.90;;;;;;5074140;28;20286;-57
2023/11/26 03:18:09;;;;;;;11.60;8.05;;;17.80;35.80;;;;;;5073947;28;20194;-60
2023/11/26 03:20:37;;;;;;;11.32;8.05;;;17.80;36.50;;;;;;5073607;28;20776;-60
2023/11/26 03:23:04;;;;;;;10.07;7.75;;;17.80;35.90;;;;;;5074064;28;20186;-60
2023/11/26 03:25:31;;;;;;;9.68;7.50;;;17.80;36.50;;;;;;5074055;28;20750;-60
2023/11/26 03:27:59;;;;;;;10.40;7.85;;;17.80;35.90;;;;;;5073674;28;20270;-60
2023/11/26 03:30:26;;;;;;;11.38;7.75;;;17.80;35.90;;;;;;5074022;28;20215;-60
2023/11/26 03:32:56;;;;;;;10.13;7.32;;;17.90;36.00;;;;;;5073520;28;20187;-60
2023/11/26 03:35:23;;;;;;;9.52;6.85;;;17.80;35.90;;;;;;5073364;28;20234;-59
2023/11/26 03:37:51;;;;;;;10.40;7.22;;;17.80;36.60;;;;;;5073354;28;20666;-60
2023/11/26 03:40:19;;;;;;;8.75;6.60;;;17.80;36.00;;;;;;5073527;28;20875;-60
2023/11/26 03:42:46;;;;;;;9.60;6.85;;;17.80;36.00;;;;;;5073294;28;20244;-60
2023/11/26 03:45:13;;;;;;;12.63;7.55;;;17.80;36.00;;;;;;5073648;28;20246;-59
2023/11/26 03:47:41;;;;;;;9.00;6.90;;;17.80;36.10;;;;;;5073433;28;20272;-58
2023/11/26 03:50:12;;;;;;;11.95;6.82;;;17.80;36.00;;;;;;5073251;28;20221;-60
2023/11/26 03:52:40;;;;;;;9.48;6.80;;;17.80;36.00;;;;;;5073473;28;20195;-60
2023/11/26 03:55:08;;;;;;;10.30;6.90;;;17.80;36.70;;;;;;5072188;28;20317;-60
2023/11/26 03:57:36;;;;;;;9.30;6.90;;;17.80;36.10;;;;;;5073105;28;20183;-59
2023/11/26 04:00:07;;;;;;;10.25;6.18;;;17.80;36.10;;;;;;5072858;28;20598;-60
2023/11/26 04:02:34;;;;;;;8.88;6.50;;;17.80;36.10;;;;;;5073033;28;20671;-60
2023/11/26 04:05:02;;;;;;;8.45;6.15;;;17.80;36.80;;;;;;5072693;28;20305;-60
2023/11/26 04:07:32;;;;;;;9.07;6.28;;;17.70;36.10;;;;;;5073132;28;20266;-60
2023/11/26 04:09:59;;;;;;;10.10;6.55;;;17.80;36.90;;;;;;5072747;28;20238;-61
2023/11/26 04:12:28;;;;;;;8.77;6.10;;;17.70;36.80;;;;;;5072419;28;20199;-58
2023/11/26 04:14:57;;;;;;;9.00;6.35;;;17.70;36.20;;;;;;5072739;28;20230;-60
2023/11/26 04:17:25;;;;;;;7.60;5.93;;;17.70;36.20;;;;;;5072443;28;20274;-60
2023/11/26 04:19:53;;;;;;;8.75;6.50;;;17.80;36.30;;;;;;5072644;28;20215;-60
2023/11/26 04:22:20;;;;;;;8.98;6.10;;;17.70;36.20;;;;;;5072793;28;20187;-60
2023/11/26 04:24:49;;;;;;;7.82;5.78;;;17.70;36.20;;;;;;5072902;28;20215;-60
2023/11/26 04:27:17;;;;;;;8.70;6.03;;;17.70;36.20;;;;;;5072128;28;20191;-60
2023/11/26 04:29:44;;;;;;;7.50;6.03;;;17.70;36.80;;;;;;5072489;28;20207;-60
2023/11/26 04:32:11;;;;;;;7.28;5.38;;;17.70;36.20;;;;;;5072798;28;20593;-59
2023/11/26 04:34:38;;;;;;;8.25;5.45;;;17.70;36.20;;;;;;5072297;28;20230;-60
2023/11/26 04:37:08;;;;;;;7.72;5.55;;;17.70;36.20;;;;;;5072655;28;20187;-60
2023/11/26 04:39:35;;;;;;;7.53;5.65;;;17.70;36.20;;;;;;5072320;28;20841;-59
2023/11/26 04:42:03;;;;;;;7.63;5.70;;;17.70;36.90;;;;;;5072236;28;20198;-58
2023/11/26 04:44:31;;;;;;;6.30;5.45;;;17.70;36.30;;;;;;5072608;28;20226;-61
2023/11/26 04:46:58;;;;;;;7.82;5.85;;;17.70;36.30;;;;;;5072529;28;20270;-60
2023/11/26 04:49:25;;;;;;;8.85;5.40;;;17.70;36.30;;;;;;5072163;28;20211;-60
2023/11/26 04:51:52;;;;;;;8.40;5.78;;;17.70;36.30;;;;;;5072104;28;20650;-60
2023/11/26 04:54:21;;;;;;;8.52;5.65;;;17.70;36.30;;;;;;5072424;28;20241;-56
2023/11/26 04:56:48;;;;;;;9.20;5.35;;;17.70;36.40;;;;;;5072061;28;20253;-60
2023/11/26 04:59:17;;;;;;;6.63;5.00;;;17.70;36.40;;;;;;5072333;28;20596;-61
2023/11/26 05:01:48;;;;;;;8.50;5.57;;;17.70;36.40;;;;;;5072424;28;20183;-59
2023/11/26 05:04:16;;;;;;;7.72;5.18;;;17.70;36.40;;;;;;5071999;28;20219;-61
2023/11/26 05:06:43;;;;;;;6.28;4.97;;;17.70;36.40;;;;;;5072124;28;20194;-60
2023/11/26 05:09:12;;;;;;;6.50;5.07;;;17.70;36.40;;;;;;5072029;28;20234;-59
2023/11/26 05:11:40;;;;;;;7.15;5.45;;;17.70;36.40;;;;;;5071832;28;20248;-59
2023/11/26 05:14:07;;;;;;;8.15;5.45;;;17.60;37.10;;;;;;5072229;28;20249;-61
2023/11/26 05:16:35;;;;;;;8.15;5.38;;;17.60;37.00;;;;;;5071751;28;20686;-60
2023/11/26 05:19:02;;;;;;;6.68;5.05;;;17.60;36.40;;;;;;5071902;28;20191;-61
2023/11/26 05:21:30;;;;;;;8.40;5.50;;;17.60;36.40;;;;;;5072141;28;20283;-60
2023/11/26 05:23:57;;;;;;;7.82;5.13;;;17.60;36.40;;;;;;5072119;28;20186;-60
2023/11/26 05:26:26;;;;;;;8.60;5.00;;;17.60;37.10;;;;;;5071392;28;20183;-59
2023/11/26 05:28:53;;;;;;;8.07;5.07;;;17.60;36.50;;;;;;5072084;28;20277;-60
2023/11/26 05:31:20;;;;;;;7.85;5.10;;;17.60;36.40;;;;;;5071818;28;20240;-60
2023/11/26 05:33:51;;;;;;;8.13;4.82;;;17.60;36.50;;;;;;5071626;28;20194;-60
2023/11/26 05:36:18;;;;;;;6.90;5.00;;;17.60;36.50;;;;;;5071719;28;20182;-60
2023/11/26 05:38:45;;;;;;;7.90;5.43;;;17.60;36.50;;;;;;5072014;28;20187;-61
2023/11/26 05:41:11;;;;;;;7.38;5.35;;;17.60;36.50;;;;;;5071850;28;20222;-60
2023/11/26 05:43:38;;;;;;;6.93;4.90;;;17.60;37.20;;;;;;5071986;28;20206;-60
2023/11/26 05:46:07;;;;;;;6.47;4.80;;;17.50;36.50;;;;;;5071979;28;20214;-58
2023/11/26 05:48:34;;;;;;;7.18;4.75;;;17.60;36.60;;;;;;5071603;28;20191;-60
2023/11/26 05:51:02;;;;;;;8.43;4.93;;;17.60;37.20;;;;;;5071963;28;20245;-60
2023/11/26 05:53:29;;;;;;;6.57;5.15;;;17.50;36.50;;;;;;5071935;28;20183;-60
2023/11/26 05:55:56;;;;;;;6.80;5.20;;;17.50;36.50;;;;;;5071510;28;20314;-60
2023/11/26 05:58:23;;;;;;;8.70;5.30;;;17.50;36.50;;;;;;5071868;28;20270;-56
2023/11/26 06:00:50;;;;;;;7.53;5.38;;;17.50;36.60;;;;;;5071968;28;20228;-60
2023/11/26 06:03:17;;;;;;;7.10;4.60;;;17.50;36.50;;;;;;5071102;28;20649;-59
2023/11/26 06:05:44;;;;;;;7.55;5.35;;;17.50;36.60;;;;;;5071566;28;20624;-60
2023/11/26 06:08:12;;;;;;;7.05;4.78;;;17.50;36.60;;;;;;5071665;28;20183;-56
2023/11/26 06:10:39;;;;;;;7.88;5.30;;;17.50;36.60;;;;;;5070967;28;20226;-60
2023/11/26 06:13:06;;;;;;;8.13;4.90;;;17.50;36.60;;;;;;5071977;28;20281;-60
2023/11/26 06:15:33;;;;;;;7.25;4.68;;;17.50;36.70;;;;;;5071511;28;20642;-59
2023/11/26 06:18:00;;;;;;;6.28;4.68;;;17.50;37.30;;;;;;5053522;28;20241;-59
2023/11/26 06:20:27;;;;;;;5.97;4.65;;;17.50;36.70;;;;;;5055323;28;20302;-59
2023/11/26 06:22:54;;;;;;;7.28;4.75;;;17.50;36.70;;;;;;5055196;28;20208;-57
2023/11/26 06:25:22;;;;;;;6.72;4.70;;;17.50;37.40;;;;;;5054899;28;20234;-59
2023/11/26 06:27:49;;;;;;;6.05;4.63;;;17.50;36.70;;;;;;5055117;28;20188;-60
2023/11/26 06:30:16;;;;;;;6.88;4.93;;;17.50;36.70;;;;;;5055257;28;20604;-60
2023/11/26 06:32:43;;;;;;;6.65;4.80;;;17.50;36.70;;;;;;5054328;28;20227;-60
2023/11/26 06:35:12;;;;;;;6.82;4.70;;;17.50;36.80;;;;;;5054535;28;20696;-59
2023/11/26 06:37:39;;;;;;;7.38;4.88;;;17.50;36.80;;;;;;5054617;28;20187;-59
2023/11/26 06:40:08;;;;;;;5.82;4.53;;;17.50;36.80;;;;;;5054288;28;20697;-59
2023/11/26 06:42:40;;;;;;;5.93;4.53;;;17.50;36.90;;;;;;5054868;28;20226;-58
2023/11/26 06:45:08;;;;;;;6.35;4.45;;;17.50;36.80;;;;;;5054814;28;20226;-60
2023/11/26 06:47:36;;;;;;;7.68;5.28;;;17.50;36.90;;;;;;5054069;28;20192;-60
2023/11/26 06:50:03;;;;;;;6.05;4.88;;;17.50;36.90;;;;;;5054655;28;20306;-59
2023/11/26 06:52:32;;;;;;;7.25;5.03;;;17.40;36.80;;;;;;5054390;28;20275;-60
2023/11/26 06:55:00;;;;;;;7.57;4.85;;;17.50;36.90;;;;;;5054179;28;20281;-60
2023/11/26 06:57:27;;;;;;;9.88;5.25;;;17.40;36.80;;;;;;5054550;28;20195;-60
2023/11/26 06:59:55;;;;;;;7.35;4.90;;;17.50;37.00;;;;;;5054496;28;20215;-60
2023/11/26 07:02:22;;;;;;;6.65;4.72;;;17.50;37.00;;;;;;5054098;28;20298;-61
2023/11/26 07:04:49;;;;;;;7.20;5.03;;;17.50;37.00;;;;;;5054286;28;20273;-60
2023/11/26 07:07:19;;;;;;;6.35;4.65;;;17.40;37.60;;;;;;5054379;28;20190;-60
2023/11/26 07:09:46;;;;;;;6.35;4.47;;;17.40;37.00;;;;;;5053715;28;20235;-60
2023/11/26 07:12:14;;;;;;;7.30;4.80;;;17.50;37.00;;;;;;5054349;28;20200;-60
2023/11/26 07:14:43;;;;;;;5.63;4.22;;;17.40;37.00;;;;;;5054338;28;20235;-60
2023/11/26 07:17:13;;;;;;;6.65;4.65;;;17.40;37.00;;;;;;5066827;28;20202;-59
2023/11/26 07:19:41;;;;;;;7.82;4.47;;;17.40;37.70;;;;;;5074135;28;20215;-60
2023/11/26 07:22:10;;;;;;;5.55;4.05;;;17.40;37.10;;;;;;5073741;28;20187;-59
2023/11/26 07:24:37;;;;;;;6.68;4.35;;;17.40;37.10;;;;;;5073324;28;20711;-59
2023/11/26 07:27:05;;;;;;;6.07;4.32;;;17.40;37.10;;;;;;5074024;28;20195;-60
2023/11/26 07:29:34;;;;;;;7.97;4.20;;;17.40;37.10;;;;;;5073863;28;20276;-60
2023/11/26 07:32:01;;;;;;;6.38;4.72;;;17.40;37.80;;;;;;5073228;28;20202;-55
2023/11/26 07:34:29;;;;;;;6.50;4.45;;;17.40;37.20;;;;;;5073813;28;20554;-60
2023/11/26 07:36:56;;;;;;;6.63;4.70;;;17.40;37.80;;;;;;5073678;28;20189;-61
2023/11/26 07:39:24;;;;;;;6.60;4.40;;;17.40;37.20;;;;;;5073367;28;20266;-60
2023/11/26 07:41:51;;;;;;;6.30;4.35;;;17.40;37.20;;;;;;5073388;28;20187;-59
2023/11/26 07:44:18;;;;;;;5.80;4.20;;;17.40;37.20;;;;;;5073283;28;20675;-60
2023/11/26 07:46:45;;;;;;;6.60;4.30;;;17.40;37.90;;;;;;5073110;28;20198;-59
2023/11/26 07:49:12;;;;;;;7.07;4.50;;;17.40;38.00;;;;;;5073471;28;20273;-60
2023/11/26 07:51:40;;;;;;;8.48;4.40;;;17.40;37.40;;;;;;5073514;28;20559;-60
2023/11/26 07:54:07;;;;;;;6.22;4.60;;;17.40;38.00;;;;;;5072930;28;20278;-59
2023/11/26 07:56:38;;;;;;;6.72;4.50;;;17.30;37.30;;;;;;5073297;28;20593;-59
2023/11/26 07:59:08;;;;;;;6.20;4.00;;;17.40;37.50;;;;;;5073015;28;20244;-59
2023/11/26 08:01:35;;;;;;;6.65;4.40;;;17.40;37.50;;;;;;5072911;28;20240;-60
2023/11/26 08:04:02;;;;;;;8.25;4.38;;;17.40;37.50;;;;;;5073232;28;20222;-59
2023/11/26 08:06:30;;;;;;;5.25;3.95;;;17.40;37.50;;;;;;5073199;28;20215;-60
2023/11/26 08:09:01;;;;;;;7.78;4.28;;;17.40;37.50;;;;;;5072618;28;20230;-56
2023/11/26 08:11:33;;;;;;;7.78;4.45;;;17.40;37.50;;;;;;5072808;28;20219;-59
2023/11/26 08:14:03;;;;;;;6.63;4.20;;;17.40;37.50;;;;;;5072831;28;20637;-59
2023/11/26 08:16:30;;;;;;;6.93;4.22;;;17.40;38.20;;;;;;5072565;28;20230;-59
2023/11/26 08:19:01;;;;;;;5.55;4.13;;;17.30;37.50;;;;;;5072738;28;20662;-57
2023/11/26 08:21:32;;;;;;;6.20;4.18;;;17.40;37.60;;;;;;5072897;28;20219;-59
2023/11/26 08:24:02;;;;;;;7.47;3.63;;;17.30;37.60;;;;;;5072167;28;20672;-59
2023/11/26 08:26:33;;;;;;;4.78;3.53;;;17.30;38.30;;;;;;5072561;28;20217;-59
2023/11/26 08:29:00;;;;;;;7.25;4.45;;;17.40;38.40;;;;;;5072791;28;20187;-59
2023/11/26 08:31:28;;;;;;;5.85;3.47;;;17.30;37.60;;;;;;5072296;28;20222;-57
2023/11/26 08:33:56;;;;;;;4.53;3.60;;;17.30;37.70;;;;;;5072699;28;20198;-60
2023/11/26 08:36:23;;;;;;;7.20;4.13;;;17.30;38.30;;;;;;5072162;28;20704;-59
2023/11/26 08:38:50;;;;;;;5.25;3.70;;;17.30;38.40;;;;;;5072052;28;20198;-59
2023/11/26 08:41:21;;;;;;;5.32;3.58;;;17.30;37.80;;;;;;5072365;28;20298;-60
2023/11/26 08:43:49;;;;;;;6.85;3.67;;;17.30;37.80;;;;;;5072611;28;20225;-59
2023/11/26 08:46:16;;;;;;;7.93;3.85;;;17.30;37.80;;;;;;5072237;28;20305;-59
2023/11/26 08:48:44;;;;;;;5.10;3.53;;;17.30;37.90;;;;;;5072230;28;20197;-59
2023/11/26 08:51:12;;;;;;;6.10;3.60;;;17.30;37.90;;;;;;5072228;28;20210;-57
2023/11/26 08:53:39;;;;;;;6.45;3.85;;;17.30;38.60;;;;;;5072193;28;20191;-58
2023/11/26 08:56:06;;;;;;;5.63;4.07;;;17.30;37.90;;;;;;5072502;28;20252;-59
2023/11/26 08:58:34;;;;;;;5.82;3.60;;;17.30;38.00;;;;;;5072287;28;20209;-59
2023/11/26 09:01:01;;;;;;;7.50;3.90;;;17.30;38.00;;;;;;5072087;28;20221;-59
2023/11/26 09:03:28;;;;;;;6.47;3.72;;;17.30;38.10;;;;;;5072371;28;20187;-58
2023/11/26 09:05:55;;;;;;;6.38;3.55;;;17.30;38.70;;;;;;5072099;28;20235;-60
2023/11/26 09:08:22;;;;;;;5.00;3.50;;;17.30;38.10;;;;;;5072002;28;20294;-59
2023/11/26 09:10:49;;;;;;;4.68;3.28;;;17.30;38.10;;;;;;5071800;28;20226;-60
2023/11/26 09:13:16;;;;;;;6.25;3.75;;;17.30;38.10;;;;;;5072603;28;20290;-60
2023/11/26 09:15:45;;;;;;;5.82;3.55;;;17.30;38.10;;;;;;5071587;28;20230;-59
2023/11/26 09:18:12;;;;;;;5.78;3.53;;;17.30;38.20;;;;;;5072289;28;20282;-59
2023/11/26 09:20:39;;;;;;;4.25;3.20;;;17.30;38.20;;;;;;5072249;28;20210;-59
2023/11/26 09:23:07;;;;;;;4.60;3.38;;;17.30;38.20;;;;;;5071540;28;20191;-60
2023/11/26 09:25:34;;;;;;;7.72;3.50;;;17.30;38.30;;;;;;5071930;28;20222;-59
2023/11/26 09:28:03;;;;;;;5.32;3.20;;;17.30;38.30;;;;;;5072129;28;20270;-60
2023/11/26 09:30:30;;;;;;;5.93;3.70;;;17.30;38.30;;;;;;5071899;28;20406;-59
2023/11/26 09:32:58;;;;;;;5.07;3.05;;;17.30;38.30;;;;;;5072058;28;20222;-60
2023/11/26 09:35:25;;;;;;;3.08;2.78;;;17.30;38.30;;;;;;5071904;28;20231;-61
2023/11/26 09:37:52;;;;;;;4.03;3.05;;;17.30;38.40;;;;;;5071701;28;20197;-58
2023/11/26 09:40:19;;;;;;;5.20;3.25;;;17.20;39.00;;;;;;5072107;28;20309;-58
2023/11/26 09:42:50;;;;;;;5.38;3.35;;;17.30;38.40;;;;;;5071815;28;20273;-60
2023/11/26 09:45:18;;;;;;;4.68;3.40;;;17.30;39.10;;;;;;5071323;28;20214;-53
2023/11/26 09:47:45;;;;;;;5.07;3.60;;;17.30;39.10;;;;;;5071619;28;20747;-59
2023/11/26 09:50:14;;;;;;;3.72;3.15;;;17.30;38.50;;;;;;5071919;28;20214;-58
2023/11/26 09:52:42;;;;;;;7.32;3.90;;;17.30;38.40;;;;;;5073476;28;20286;-59
2023/11/26 09:55:09;;;;;;;6.63;3.50;;;17.20;38.40;;;;;;5075556;28;20215;-59
2023/11/26 09:57:39;;;;;;;5.38;3.10;;;17.30;38.60;;;;;;5075703;28;20191;-59
2023/11/26 10:00:10;;;;;;;5.75;3.42;;;17.30;38.50;;;;;;5074873;28;20218;-60
2023/11/26 10:02:37;;;;;;;6.60;3.13;;;17.30;38.60;;;;;;5075319;28;20594;-60
2023/11/26 10:05:06;;;;;;;3.60;2.90;;;17.20;38.40;;;;;;5075209;28;20223;-59
2023/11/26 10:07:36;;;;;;;5.10;3.13;;;17.20;38.50;;;;;;5075081;28;20285;-59
2023/11/26 10:10:09;;;;;;;4.40;3.38;;;17.20;38.50;;;;;;5075045;28;20247;-60
2023/11/26 10:12:51;;;;;;;5.55;3.08;;;17.30;38.60;;;;;;5075376;28;20233;-58
2023/11/26 10:15:19;;;;;;;3.88;2.70;;;17.30;38.70;;;;;;5075007;28;20301;-60
2023/11/26 10:18:00;;;;;;;4.07;2.85;;;17.20;38.60;;;;;;5075156;28;20245;-58
2023/11/26 10:20:27;;;;;;;3.85;2.78;;;17.20;38.60;;;;;;5074939;28;20222;-60
2023/11/26 10:22:56;;;;;;;4.05;3.22;;;17.20;38.60;;;;;;5074776;28;20733;-60
2023/11/26 10:25:24;;;;;;;5.15;3.03;;;17.20;38.60;;;;;;5075161;28;20261;-60
2023/11/26 10:27:50;;;;;;;4.20;3.00;;;17.20;38.70;;;;;;5074779;28;20198;-59
2023/11/26 10:30:27;;;;;;;4.13;2.97;;;17.20;38.60;;;;;;5074762;28;20631;-59
2023/11/26 10:33:01;;;;;;;4.75;3.03;;;17.20;38.80;;;;;;5075003;28;20222;-59
2023/11/26 10:35:48;;;;;;;3.92;2.70;;;17.20;38.80;;;;;;5073957;28;20712;-60
2023/11/26 10:38:17;;;;;;;6.50;3.35;;;17.20;38.90;;;;;;5075172;28;20190;-59
2023/11/26 10:40:45;;;;;;;5.80;3.20;;;17.20;38.90;;;;;;5074914;28;20215;-59
2023/11/26 10:43:12;;;;;;;4.72;2.90;;;17.20;38.90;;;;;;5074124;28;20198;-59
2023/11/26 10:45:42;;;;;;;3.75;2.92;;;17.20;38.90;;;;;;5074426;28;20222;-60
2023/11/26 10:48:13;;;;;;;3.97;3.30;;;17.20;39.60;;;;;;5074664;28;20209;-60
2023/11/26 10:50:42;;;;;;;4.60;2.90;;;17.20;39.00;;;;;;5074285;28;20214;-60
2023/11/26 10:53:23;;;;;;;5.78;3.20;;;17.20;39.00;;;;;;5074317;28;20193;-56
2023/11/26 10:55:55;;;;;;;4.60;2.97;;;17.20;39.00;;;;;;5074199;28;20234;-60
2023/11/26 10:58:28;;;;;;;5.28;3.00;;;17.20;39.00;;;;;;5073880;28;20669;-59
2023/11/26 11:00:58;;;;;;;5.00;3.17;;;17.20;39.00;;;;;;5074466;28;20245;-60
2023/11/26 11:03:26;;;;;;;4.35;3.00;;;17.20;39.00;;;;;;5073747;28;20668;-60
2023/11/26 11:05:53;;;;;;;4.32;3.38;;;17.20;39.00;;;;;;5073936;28;20302;-60
2023/11/26 11:08:22;;;;;;;4.45;3.28;;;17.20;39.00;;;;;;5073984;28;20234;-60
2023/11/26 11:11:05;;;;;;;4.78;3.15;;;17.20;39.00;;;;;;5073696;28;20218;-58
2023/11/26 11:13:34;;;;;;;5.53;2.83;;;17.20;39.00;;;;;;5073929;28;20646;-59
2023/11/26 11:16:01;;;;;;;4.15;2.92;;;17.20;39.00;;;;;;5073580;28;20314;-58
2023/11/26 11:18:46;;;;;;;5.28;3.50;;;17.20;39.70;;;;;;5074038;28;20190;-59
2023/11/26 11:21:16;;;;;;;4.95;3.33;;;17.20;39.00;;;;;;5073698;28;20223;-59
2023/11/26 11:23:45;;;;;;;4.30;2.95;;;17.20;39.00;;;;;;5073671;28;20189;-59
2023/11/26 11:26:15;;;;;;;7.28;3.58;;;17.20;39.70;;;;;;5073894;28;20215;-60
2023/11/26 11:28:43;;;;;;;5.97;3.55;;;17.20;39.10;;;;;;5073659;28;20270;-59
2023/11/26 11:31:11;;;;;;;6.70;3.50;;;17.20;39.10;;;;;;5073948;28;20253;-60
2023/11/26 11:34:11;;;;;;;4.47;3.03;;;17.20;39.10;;;;;;5073518;28;20283;-60
2023/11/26 11:36:54;;;;;;;5.47;3.60;;;17.10;39.10;;;;;;5073182;28;20321;-60
2023/11/26 11:39:26;;;;;;;4.97;3.05;;;17.20;39.30;;;;;;5071999;28;20298;-59
2023/11/26 11:42:12;;;;;;;3.80;2.90;;;17.20;39.40;;;;;;5073352;28;20223;-59
2023/11/26 11:44:41;;;;;;;5.22;3.20;;;17.20;39.40;;;;;;5073258;28;20194;-56
2023/11/26 11:47:08;;;;;;;4.50;2.92;;;17.20;39.40;;;;;;5073483;28;20217;-58
2023/11/26 11:50:05;;;;;;;6.65;3.30;;;17.20;39.40;;;;;;5073103;28;20191;-60
2023/11/26 11:52:32;;;;;;;5.25;3.13;;;17.10;39.40;;;;;;5073517;28;20242;-59
2023/11/26 11:55:27;;;;;;;4.07;2.92;;;17.10;39.40;;;;;;5073336;28;20265;-59
2023/11/26 11:57:54;;;;;;;4.97;2.92;;;17.10;39.50;;;;;;5072845;28;20241;-58
2023/11/26 12:00:22;;;;;;;6.75;3.50;;;17.10;39.40;;;;;;5073263;28;20292;-59
2023/11/26 12:02:49;;;;;;;5.63;3.25;;;17.10;40.20;;;;;;5073485;28;20214;-59
2023/11/26 12:05:24;;;;;;;6.75;3.60;;;17.10;39.60;;;;;;5072486;28;20280;-60
2023/11/26 12:07:52;;;;;;;6.75;3.00;;;17.20;39.70;;;;;;5072995;28;20221;-60
2023/11/26 12:10:24;;;;;;;5.72;3.40;;;17.10;39.70;;;;;;5072659;28;20227;-60
2023/11/26 12:13:05;;;;;;;5.10;3.28;;;17.10;39.70;;;;;;5072833;28;20238;-59
2023/11/26 12:15:34;;;;;;;7.35;3.42;;;17.10;39.80;;;;;;5072242;28;20238;-60
2023/11/26 12:18:01;;;;;;;5.93;3.20;;;17.10;39.80;;;;;;5052653;28;20285;-59
2023/11/26 12:20:29;;;;;;;5.20;3.08;;;17.10;40.50;;;;;;5052239;28;20627;-59
2023/11/26 12:22:57;;;;;;;4.22;3.08;;;17.10;39.80;;;;;;5053030;28;20215;-60
2023/11/26 12:25:25;;;;;;;10.68;3.17;;;17.20;40.00;;;;;;5052796;28;20192;-59
2023/11/26 12:28:03;;;;;;;7.43;2.90;;;17.20;40.60;;;;;;5052671;28;20220;-59
2023/11/26 12:30:32;;;;;;;4.43;2.90;;;17.10;40.60;;;;;;5052423;28;20206;-57
2023/11/26 12:32:59;;;;;;;4.97;3.30;;;17.10;39.90;;;;;;5052849;28;20220;-59
2023/11/26 12:35:28;;;;;;;6.20;3.00;;;17.10;39.90;;;;;;5052299;28;20191;-58
2023/11/26 12:37:57;;;;;;;4.63;3.10;;;17.10;40.00;;;;;;5052970;28;20603;-59
2023/11/26 12:40:25;;;;;;;7.85;3.40;;;17.10;40.00;;;;;;5052313;28;20192;-60
2023/11/26 12:42:53;;;;;;;6.95;3.05;;;17.10;40.00;;;;;;5051971;28;20219;-60
2023/11/26 12:45:20;;;;;;;4.68;3.05;;;17.10;40.10;;;;;;5052528;28;20198;-59
2023/11/26 12:47:51;;;;;;;7.60;3.40;;;17.10;40.20;;;;;;5052453;28;20218;-59
2023/11/26 12:50:18;;;;;;;5.50;3.15;;;17.10;40.20;;;;;;5052124;28;20287;-60
2023/11/26 12:52:46;;;;;;;4.38;3.15;;;17.20;40.20;;;;;;5052136;28;20225;-60